Time;durP1;ratioP1;P1;durP2;ratioP2;P2;SDS_P1;SDS_P2;PMS_P1;PMS_P2;Temp;Humidity;BMP_temperature;BMP_pressure;BME280_temperature;BME280_humidity;BME280_pressure;Samples;Min_cycle;Max_cycle;Signal;HPM_P1;HPM_P2
2022/02/22 00:00:29;;;;;;;;;;;;;;;4.38;100.00;98047.62;1703459;84;20497;-71
2022/02/22 00:03:00;;;;;;;;;;;;;;;4.35;100.00;98044.16;1709010;83;20446;-70
2022/02/22 00:05:29;;;;;;;;;;;;;;;4.33;100.00;98046.94;1708180;84;20443;-70
2022/02/22 00:07:59;;;;;;;;;;;;;;;4.29;100.00;98044.84;1709038;84;20135;-70
2022/02/22 00:10:33;;;;;;;;;;;;;;;4.26;100.00;98054.17;1704124;84;21154;-70
2022/02/22 00:13:02;;;;;;;;;;;;;;;4.23;100.00;98054.80;1704486;84;20115;-70
2022/02/22 00:15:35;;;;;;;;;;;;;;;4.18;100.00;98053.01;1678462;84;20532;-70
2022/02/22 00:18:02;;;;;;;;;;;;;;;4.16;100.00;98055.79;1690625;84;20580;-70
2022/02/22 00:20:31;;;;;;;;;;;;;;;4.14;100.00;98054.73;1709095;84;20123;-70
2022/02/22 00:22:59;;;;;;;;;;;;;;;4.13;100.00;98053.13;1708317;84;21473;-72
2022/02/22 00:25:27;;;;;;;;;;;;;;;4.13;100.00;98053.69;1707425;84;20160;-72
2022/02/22 00:27:53;;;;;;;;;;;;;;;4.12;100.00;98045.30;1709171;84;20473;-71
2022/02/22 00:30:22;;;;;;;;;;;;;;;4.11;100.00;98044.49;1680038;84;20155;-71
2022/02/22 00:32:52;;;;;;;;;;;;;;;4.11;100.00;98050.48;1709306;83;20442;-71
2022/02/22 00:35:18;;;;;;;;;;;;;;;4.10;100.00;98044.80;1708243;83;21125;-71
2022/02/22 00:37:48;;;;;;;;;;;;;;;4.09;100.00;98044.00;1700071;84;20151;-71
2022/02/22 00:40:19;;;;;;;;;;;;;;;4.10;100.00;98051.59;1666321;85;20130;-72
2022/02/22 00:42:53;;;;;;;;;;;;;;;4.10;100.00;98045.61;1682033;85;20160;-70
2022/02/22 00:45:19;;;;;;;;;;;;;;;4.11;100.00;98047.77;1656304;85;20088;-70
2022/02/22 00:47:52;;;;;;;;;;;;;;;4.10;100.00;98046.96;1676906;85;21275;-72
2022/02/22 00:50:20;;;;;;;;;;;;;;;4.11;100.00;98046.41;1681223;85;20092;-72
2022/02/22 00:52:50;;;;;;;;;;;;;;;4.10;100.00;98046.16;1680996;85;20084;-71
2022/02/22 00:55:23;;;;;;;;;;;;;;;4.10;100.00;98044.80;1681751;85;20085;-70
2022/02/22 00:57:50;;;;;;;;;;;;;;;4.09;100.00;98039.92;1681630;85;20120;-69
2022/02/22 01:00:19;;;;;;;;;;;;;;;4.09;100.00;98039.12;1682241;85;21171;-69
2022/02/22 01:02:56;;;;;;;;;;;;;;;4.07;100.00;98038.08;1681903;85;20105;-69
2022/02/22 01:05:28;;;;;;;;;;;;;;;4.07;100.00;98037.27;1655855;85;20125;-68
2022/02/22 01:08:02;;;;;;;;;;;;;;;4.05;100.00;98044.92;1682423;85;20097;-70
2022/02/22 01:10:31;;;;;;;;;;;;;;;4.02;100.00;98047.73;1682181;85;20089;-70
2022/02/22 01:13:01;;;;;;;;;;;;;;;4.01;100.00;98054.83;1681825;85;21248;-70
2022/02/22 01:18:08;;;;;;;;;;;;;;;3.97;100.00;98059.52;1666186;85;20176;-69
2022/02/22 01:20:40;;;;;;;;;;;;;;;3.97;100.00;98054.65;1682184;85;20127;-69
2022/02/22 01:23:08;;;;;;;;;;;;;;;3.95;100.00;98056.31;1682042;85;20468;-69
2022/02/22 01:25:38;;;;;;;;;;;;;;;3.94;100.00;98057.98;1681876;85;21121;-69
2022/02/22 01:28:08;;;;;;;;;;;;;;;3.93;100.00;98063.97;1681615;85;20154;-69
2022/02/22 01:30:38;;;;;;;;;;;;;;;3.94;100.00;98059.34;1681923;85;20457;-69
2022/02/22 01:33:10;;;;;;;;;;;;;;;3.92;100.00;98050.70;1682228;85;20121;-69
2022/02/22 01:35:38;;;;;;;;;;;;;;;3.90;100.00;98059.15;1681710;85;20429;-72
2022/02/22 01:38:10;;;;;;;;;;;;;;;3.88;100.00;98064.09;1682214;85;21191;-72
2022/02/22 01:40:42;;;;;;;;;;;;;;;3.88;100.00;98070.06;1702595;83;20123;-72
2022/02/22 01:43:06;;;;;;;;;;;;;;;3.84;100.00;98068.52;1705335;84;20119;-71
2022/02/22 01:45:36;;;;;;;;;;;;;;;3.81;100.00;98071.85;1705309;84;20127;-70
2022/02/22 01:48:07;;;;;;;;;;;;;;;3.79;100.00;98063.21;1700497;84;20115;-69
2022/02/22 01:50:50;;;;;;;;;;;;;;;3.79;100.00;98062.41;1705295;84;21045;-70
2022/02/22 01:53:05;;;;;;;;;;;;;;;3.77;100.00;98054.58;1700640;84;20123;-71
2022/02/22 01:55:34;;;;;;;;;;;;;;;3.75;100.00;98047.84;1705269;84;20119;-71
2022/02/22 01:58:02;;;;;;;;;;;;;;;3.75;100.00;98051.36;1699325;84;20147;-70
2022/02/22 02:00:31;;;;;;;;;;;;;;;3.74;100.00;98062.52;1705389;84;20107;-71
2022/02/22 02:03:06;;;;;;;;;;;;;;;3.74;100.00;98065.24;1705283;84;21171;-72
2022/02/22 02:05:34;;;;;;;;;;;;;;;3.71;100.00;98069.38;1704378;84;20155;-72
2022/02/22 02:08:04;;;;;;;;;;;;;;;3.71;100.00;98058.52;1681490;84;20151;-73
2022/02/22 02:10:34;;;;;;;;;;;;;;;3.70;100.00;98065.05;1703634;84;20596;-72
2022/02/22 02:13:07;;;;;;;;;;;;;;;3.68;100.00;98069.98;1705280;84;20115;-74
2022/02/22 02:15:32;;;;;;;;;;;;;;;3.69;100.00;98072.14;1704568;84;21159;-69
2022/02/22 02:18:05;;;;;;;;;;;;;;;3.68;100.00;98074.61;1705344;84;20123;-69
2022/02/22 02:20:35;;;;;;;;;;;;;;;3.67;100.00;98077.88;1705206;84;20151;-72
2022/02/22 02:23:02;;;;;;;;;;;;;;;3.66;100.00;98074.91;1705303;84;20127;-72
2022/02/22 02:25:29;;;;;;;;;;;;;;;3.65;100.00;98090.95;1705398;84;20127;-73
2022/02/22 02:27:55;;;;;;;;;;;;;;;3.64;100.00;98096.13;1705603;84;21781;-73
2022/02/22 02:30:27;;;;;;;;;;;;;;;3.62;100.00;98103.22;1705196;84;20147;-73
2022/02/22 02:32:59;;;;;;;;;;;;;;;3.61;100.00;98099.45;1704047;84;20147;-75
2022/02/22 02:35:25;;;;;;;;;;;;;;;3.61;100.00;98098.09;1705162;84;20119;-76
2022/02/22 02:37:51;;;;;;;;;;;;;;;3.59;100.00;98090.26;1681124;84;20147;-75
2022/02/22 02:40:19;;;;;;;;;;;;;;;3.59;100.00;98091.61;1700206;83;21206;-75
2022/02/22 02:42:47;;;;;;;;;;;;;;;3.60;100.00;98093.77;1673563;84;20172;-76
2022/02/22 02:45:15;;;;;;;;;;;;;;;3.60;100.00;98099.20;1697248;84;20139;-75
2022/02/22 02:47:42;;;;;;;;;;;;;;;3.60;100.00;98100.00;1698056;84;20359;-76
2022/02/22 02:50:16;;;;;;;;;;;;;;;3.61;100.00;98108.39;1697946;84;20115;-75
2022/02/22 02:52:40;;;;;;;;;;;;;;;3.61;100.00;98109.75;1697330;84;21176;-75
2022/02/22 02:55:10;;;;;;;;;;;;;;;3.62;100.00;98111.91;1697158;84;20147;-75
2022/02/22 02:57:38;;;;;;;;;;;;;;;3.61;100.00;98115.17;1697953;84;20151;-74
2022/02/22 03:00:09;;;;;;;;;;;;;;;3.62;100.00;98119.50;1673068;84;20132;-80
2022/02/22 03:02:37;;;;;;;;;;;;;;;3.62;100.00;98120.05;1697733;84;20124;-80
2022/02/22 03:05:09;;;;;;;;;;;;;;;3.61;100.00;98131.46;1697190;84;20493;-79
2022/02/22 03:07:39;;;;;;;;;;;;;;;3.61;100.00;98136.09;1673382;84;20152;-80
2022/02/22 03:10:08;;;;;;;;;;;;;;;3.59;100.00;98151.31;1673374;84;20124;-76
2022/02/22 03:12:42;;;;;;;;;;;;;;;3.58;100.00;98146.19;1697912;84;20131;-70
2022/02/22 03:15:09;;;;;;;;;;;;;;;3.56;100.00;98151.12;1696498;84;20144;-73
2022/02/22 03:17:37;;;;;;;;;;;;;;;3.54;100.00;98143.28;1673296;84;20113;-73
2022/02/22 03:20:06;;;;;;;;;;;;;;;3.52;100.00;98150.12;1697805;84;20506;-71
2022/02/22 03:22:43;;;;;;;;;;;;;;;3.49;100.00;98148.81;1697589;84;20509;-70
2022/02/22 03:25:11;;;;;;;;;;;;;;;3.49;100.00;98148.81;1697164;84;20119;-71
2022/02/22 03:27:37;;;;;;;;;;;;;;;3.47;100.00;98142.88;1696558;84;20448;-69
2022/02/22 03:30:11;;;;;;;;;;;;;;;3.47;100.00;98152.38;1698040;84;21793;-70
2022/02/22 03:32:38;;;;;;;;;;;;;;;3.47;100.00;98154.29;1696179;84;20120;-70
2022/02/22 03:35:05;;;;;;;;;;;;;;;3.48;100.00;98154.54;1698716;84;20406;-69
2022/02/22 03:37:42;;;;;;;;;;;;;;;3.48;100.00;98162.68;1658334;86;20081;-71
2022/02/22 03:40:12;;;;;;;;;;;;;;;3.49;100.00;98156.15;1676703;83;20139;-69
2022/02/22 03:42:46;;;;;;;;;;;;;;;3.51;100.00;98155.30;1712531;83;21186;-72
2022/02/22 03:45:14;;;;;;;;;;;;;;;3.52;100.00;98156.90;1701624;83;20138;-70
2022/02/22 03:47:43;;;;;;;;;;;;;;;3.54;100.00;98157.40;1703417;84;20437;-72
2022/02/22 03:50:16;;;;;;;;;;;;;;;3.57;100.00;98171.72;1673172;84;20103;-70
2022/02/22 03:52:44;;;;;;;;;;;;;;;3.59;100.00;98178.45;1703793;84;20111;-69
2022/02/22 03:55:12;;;;;;;;;;;;;;;3.60;100.00;98178.70;1703544;84;21225;-69
2022/02/22 03:57:43;;;;;;;;;;;;;;;3.63;100.00;98182.16;1703553;84;20087;-69
2022/02/22 04:00:18;;;;;;;;;;;;;;;3.66;100.00;98178.04;1699578;84;20098;-69
2022/02/22 04:03:03;;;;;;;;;;;;;;;3.69;100.00;98180.15;1688879;84;20086;-69
2022/02/22 04:05:31;;;;;;;;;;;;;;;3.68;100.00;98177.73;1698446;84;20103;-69
2022/02/22 04:07:50;;;;;;;;;;;;;;;3.67;100.00;98184.27;1701630;84;21053;-69
2022/02/22 04:10:15;;;;;;;;;;;;;;;3.65;100.00;98184.02;1702994;84;20123;-69
2022/02/22 04:12:44;;;;;;;;;;;;;;;3.67;100.00;98187.79;1704024;84;20126;-69
2022/02/22 04:15:12;;;;;;;;;;;;;;;3.68;100.00;98187.23;1703316;84;20450;-69
2022/02/22 04:17:43;;;;;;;;;;;;;;;3.67;100.00;98186.44;1696717;84;20115;-69
2022/02/22 04:20:17;;;;;;;;;;;;;;;3.65;100.00;98190.00;1703171;84;21259;-69
2022/02/22 04:22:45;;;;;;;;;;;;;;;3.63;100.00;98186.78;1703722;84;20450;-70
2022/02/22 04:25:15;;;;;;;;;;;;;;;3.62;100.00;98187.89;1701486;84;20146;-71
2022/02/22 04:27:43;;;;;;;;;;;;;;;3.62;100.00;98185.98;1702897;84;20147;-70
2022/02/22 04:30:16;;;;;;;;;;;;;;;3.59;100.00;98187.14;1696866;84;20090;-72
2022/02/22 04:32:55;;;;;;;;;;;;;;;3.56;100.00;98185.03;1702533;83;21091;-69
2022/02/22 04:35:13;;;;;;;;;;;;;;;3.54;100.00;98179.11;1708412;83;20117;-73
2022/02/22 04:37:49;;;;;;;;;;;;;;;3.54;100.00;98181.82;1718870;83;20118;-69
2022/02/22 04:40:22;;;;;;;;;;;;;;;3.53;100.00;98178.86;1717890;82;20151;-78
2022/02/22 04:42:49;;;;;;;;;;;;;;;3.51;100.00;98183.78;1718580;83;20424;-84
2022/02/22 04:45:17;;;;;;;;;;;;;;;3.49;100.00;98187.34;1717067;83;21178;-70
2022/02/22 04:47:47;;;;;;;;;;;;;;;3.48;100.00;98192.52;1717123;83;20082;-72
2022/02/22 04:50:17;;;;;;;;;;;;;;;3.45;100.00;98191.25;1716237;83;20137;-75
2022/02/22 04:52:46;;;;;;;;;;;;;;;3.43;100.00;98188.59;1716715;83;20140;-71
2022/02/22 04:55:15;;;;;;;;;;;;;;;3.43;100.00;98191.30;1712762;83;20125;-74
2022/02/22 04:57:43;;;;;;;;;;;;;;;3.42;100.00;98193.20;1709468;83;21119;-74
2022/02/22 05:00:12;;;;;;;;;;;;;;;3.41;100.00;98200.29;1703112;83;20501;-73
2022/02/22 05:02:41;;;;;;;;;;;;;;;3.39;100.00;98202.50;1703580;83;20490;-73
2022/02/22 05:05:08;;;;;;;;;;;;;;;3.38;100.00;98204.96;1714799;83;20077;-70
2022/02/22 05:07:40;;;;;;;;;;;;;;;3.36;100.00;98207.17;1718241;83;20090;-71
2022/02/22 05:10:12;;;;;;;;;;;;;;;3.34;100.00;98199.89;1713098;83;21093;-72
2022/02/22 05:12:40;;;;;;;;;;;;;;;3.31;100.00;98212.14;1702609;82;20111;-73
2022/02/22 05:15:17;;;;;;;;;;;;;;;3.29;100.00;98211.64;1680013;83;20104;-74
2022/02/22 05:17:49;;;;;;;;;;;;;;;3.26;100.00;98223.08;1713799;82;20136;-76
2022/02/22 05:20:16;;;;;;;;;;;;;;;3.24;100.00;98214.45;1729748;82;20161;-73
2022/02/22 05:22:48;;;;;;;;;;;;;;;3.21;100.00;98221.27;1725894;82;21170;-76
2022/02/22 05:25:16;;;;;;;;;;;;;;;3.20;100.00;98222.92;1695846;83;20094;-72
2022/02/22 05:27:48;;;;;;;;;;;;;;;3.16;100.00;98231.41;1714813;83;20099;-80
2022/02/22 05:30:16;;;;;;;;;;;;;;;3.11;100.00;98238.27;1711856;82;20739;-76
2022/02/22 05:32:47;;;;;;;;;;;;;;;3.06;100.00;98243.23;1704640;83;20187;-74
2022/02/22 05:35:24;;;;;;;;;;;;;;;3.03;100.00;98239.77;1684753;83;20096;-84
2022/02/22 05:37:56;;;;;;;;;;;;;;;2.97;100.00;98248.54;1708796;82;20186;-79
2022/02/22 05:40:22;;;;;;;;;;;;;;;2.94;100.00;98248.33;1712952;81;20087;-88
2022/02/22 05:42:53;;;;;;;;;;;;;;;2.90;100.00;98255.44;1699057;84;20555;-81
2022/02/22 05:45:20;;;;;;;;;;;;;;;2.85;100.00;98254.20;1701224;84;20174;-89
2022/02/22 05:47:48;;;;;;;;;;;;;;;2.80;100.00;98264.58;1702487;84;21151;-75
2022/02/22 05:50:17;;;;;;;;;;;;;;;2.77;100.00;98269.78;1680205;84;20103;-75
2022/02/22 05:52:52;;;;;;;;;;;;;;;2.72;100.00;98273.92;1664251;85;20160;-81
2022/02/22 05:55:19;;;;;;;;;;;;;;;2.71;100.00;98285.87;1659466;85;20554;-81
2022/02/22 05:57:52;;;;;;;;;;;;;;;2.68;100.00;98281.84;1692219;84;20154;-75
2022/02/22 06:00:21;;;;;;;;;;;;;;;2.68;100.00;98294.03;1662356;85;21791;-76
2022/02/22 06:02:56;;;;;;;;;;;;;;;2.65;100.00;98294.07;1692029;85;20124;-74
2022/02/22 06:05:23;;;;;;;;;;;;;;;2.62;100.00;98297.38;1692598;85;20415;-73
2022/02/22 06:07:59;;;;;;;;;;;;;;;2.61;100.00;98303.89;1683360;85;20152;-73
2022/02/22 06:10:23;;;;;;;;;;;;;;;2.61;100.00;98307.95;1679357;85;20121;-71
2022/02/22 06:12:54;;;;;;;;;;;;;;;2.64;100.00;98306.02;1680533;85;21221;-70
2022/02/22 06:15:23;;;;;;;;;;;;;;;2.71;100.00;98304.28;1680685;85;20404;-72
2022/02/22 06:17:52;;;;;;;;;;;;;;;2.80;100.00;98307.13;1680452;85;20173;-74
2022/02/22 06:20:22;;;;;;;;;;;;;;;2.90;100.00;98308.30;1679116;85;20768;-70
2022/02/22 06:22:54;;;;;;;;;;;;;;;2.99;100.00;98303.81;1679005;85;20129;-71
2022/02/22 06:25:23;;;;;;;;;;;;;;;3.08;100.00;98312.89;1680500;85;21182;-82
2022/02/22 06:28:00;;;;;;;;;;;;;;;3.14;100.00;98318.48;1664450;85;20135;-82
2022/02/22 06:30:32;;;;;;;;;;;;;;;3.20;100.00;98315.13;1679806;85;20140;-80
2022/02/22 06:33:04;;;;;;;;;;;;;;;3.26;100.00;98320.17;1679684;84;20087;-80
2022/02/22 06:35:30;;;;;;;;;;;;;;;3.31;100.00;98328.22;1677928;85;20121;-77
2022/02/22 06:37:59;;;;;;;;;;;;;;;3.36;100.00;98327.88;1678798;85;22048;-70
2022/02/22 06:40:29;;;;;;;;;;;;;;;3.42;100.00;98327.50;1684093;84;20202;-70
2022/02/22 06:43:00;;;;;;;;;;;;;;;3.54;100.00;98337.84;1707629;84;20163;-70
2022/02/22 06:45:33;;;;;;;;;;;;;;;3.62;100.00;98340.67;1708445;83;20119;-70
2022/02/22 06:48:08;;;;;;;;;;;;;;;3.71;100.00;98341.34;1703153;83;20131;-70
2022/02/22 06:50:37;;;;;;;;;;;;;;;3.77;100.00;98346.37;1716622;83;21120;-70
2022/02/22 06:53:11;;;;;;;;;;;;;;;3.83;100.00;98345.73;1723198;83;20128;-70
2022/02/22 06:55:38;;;;;;;;;;;;;;;3.87;99.66;98340.75;1723276;83;20130;-72
2022/02/22 06:58:11;;;;;;;;;;;;;;;3.92;98.99;98345.28;1715214;83;20119;-71
2022/02/22 07:00:43;;;;;;;;;;;;;;;3.95;98.54;98344.67;1721951;83;20141;-71
2022/02/22 07:03:12;;;;;;;;;;;;;;;4.00;97.99;98342.41;1724071;82;21800;-72
2022/02/22 07:05:41;;;;;;;;;;;;;;;4.03;97.38;98348.60;1723631;83;20112;-75
2022/02/22 07:08:16;;;;;;;;;;;;;;;4.09;97.48;98348.17;1723829;83;20097;-72
2022/02/22 07:10:42;;;;;;;;;;;;;;;4.16;97.23;98347.21;1722983;83;20145;-72
2022/02/22 07:13:12;;;;;;;;;;;;;;;4.25;96.66;98350.03;1723961;83;20096;-73
2022/02/22 07:15:43;;;;;;;;;;;;;;;4.31;96.08;98348.27;1704749;83;20114;-74
2022/02/22 07:18:20;;;;;;;;;;;;;;;4.36;94.79;98348.70;1679380;84;20151;-72
2022/02/22 07:20:49;;;;;;;;;;;;;;;4.39;94.80;98352.17;1707864;84;20182;-70
2022/02/22 07:23:23;;;;;;;;;;;;;;;4.43;94.53;98351.82;1707721;84;38653;-70
2022/02/22 07:25:57;;;;;;;;;;;;;;;4.48;94.21;98354.98;1706876;84;20147;-70
2022/02/22 07:28:22;;;;;;;;;;;;;;;4.49;93.56;98360.67;1706792;83;21164;-72
2022/02/22 07:30:54;;;;;;;;;;;;;;;4.52;92.86;98364.14;1703460;84;20143;-72
2022/02/22 07:33:21;;;;;;;;;;;;;;;4.54;92.54;98364.64;1706869;84;20148;-70
2022/02/22 07:35:49;;;;;;;;;;;;;;;4.59;92.35;98365.89;1706876;84;20140;-68
2022/02/22 07:38:26;;;;;;;;;;;;;;;4.83;92.38;98368.33;1678904;84;20107;-68
2022/02/22 07:40:53;;;;;;;;;;;;;;;5.19;91.77;98366.39;1703706;84;21863;-69
2022/02/22 07:43:21;;;;;;;;;;;;;;;5.44;89.51;98370.37;1672120;84;20148;-66
2022/02/22 07:45:49;;;;;;;;;;;;;;;5.57;87.76;98367.34;1696106;84;20467;-67
2022/02/22 07:48:22;;;;;;;;;;;;;;;5.67;86.81;98376.60;1696466;84;20395;-71
2022/02/22 07:50:51;;;;;;;;;;;;;;;5.72;85.77;98378.39;1672751;84;20127;-71
2022/02/22 07:53:17;;;;;;;;;;;;;;;5.73;85.45;98375.91;1696560;84;21205;-73
2022/02/22 07:55:51;;;;;;;;;;;;;;;5.72;84.79;98381.92;1696345;84;20151;-73
2022/02/22 07:58:17;;;;;;;;;;;;;;;5.88;84.51;98379.02;1694900;84;20132;-75
2022/02/22 08:00:48;;;;;;;;;;;;;;;6.23;83.18;98379.20;1696471;84;20604;-76
2022/02/22 08:03:22;;;;;;;;;;;;;;;6.63;82.14;98379.36;1699280;83;20140;-73
2022/02/22 08:05:51;;;;;;;;;;;;;;;7.10;78.74;98374.09;1696484;84;20127;-74
2022/02/22 08:08:21;;;;;;;;;;;;;;;7.50;76.75;98376.64;1699604;83;20118;-76
2022/02/22 08:10:49;;;;;;;;;;;;;;;7.86;74.20;98367.45;1708312;83;20488;-77
2022/02/22 08:13:20;;;;;;;;;;;;;;;8.24;73.95;98369.37;1720175;83;20164;-71
2022/02/22 08:15:47;;;;;;;;;;;;;;;8.75;71.75;98371.60;1724840;83;20137;-72
2022/02/22 08:18:18;;;;;;;;;;;;;;;9.19;68.32;98366.85;1696699;83;20153;-73
2022/02/22 08:20:47;;;;;;;;;;;;;;;9.56;65.86;98371.09;1715589;83;20478;-75
2022/02/22 08:23:25;;;;;;;;;;;;;;;9.86;64.03;98367.61;1690842;84;20150;-73
2022/02/22 08:25:55;;;;;;;;;;;;;;;10.15;61.43;98370.17;1684643;84;20115;-66
2022/02/22 08:28:19;;;;;;;;;;;;;;;10.41;59.30;98367.68;1697906;83;20433;-66
2022/02/22 08:30:49;;;;;;;;;;;;;;;10.67;57.10;98368.70;1666378;85;22109;-66
2022/02/22 08:33:16;;;;;;;;;;;;;;;10.74;54.47;98370.30;1662896;85;20429;-65
2022/02/22 08:35:47;;;;;;;;;;;;;;;10.85;52.94;98368.11;1644122;83;20154;-66
2022/02/22 08:38:13;;;;;;;;;;;;;;;10.88;52.26;98375.66;1682140;85;20128;-66
2022/02/22 08:40:40;;;;;;;;;;;;;;;10.96;49.16;98372.55;1667178;84;20212;-69
2022/02/22 08:43:08;;;;;;;;;;;;;;;10.98;49.79;98380.42;1676061;83;20103;-70
2022/02/22 08:45:35;;;;;;;;;;;;;;;11.12;48.78;98373.98;1706012;83;20131;-70
2022/02/22 08:48:03;;;;;;;;;;;;;;;11.34;48.42;98380.90;1701465;83;20073;-72
2022/02/22 08:50:34;;;;;;;;;;;;;;;11.62;46.91;98387.75;1675236;83;20524;-68
2022/02/22 08:53:03;;;;;;;;;;;;;;;11.76;45.72;98384.82;1732089;82;20158;-68
2022/02/22 08:55:36;;;;;;;;;;;;;;;11.97;46.15;98392.08;1731769;83;21095;-69
2022/02/22 08:58:02;;;;;;;;;;;;;;;12.33;48.02;98388.27;1721693;82;20096;-69
2022/02/22 09:00:31;;;;;;;;;;;;;;;12.49;48.93;98385.73;1714655;82;20432;-67
2022/02/22 09:03:05;;;;;;;;;;;;;;;12.47;40.92;98399.05;1717200;82;20651;-68
2022/02/22 09:05:36;;;;;;;;;;;;;;;12.36;40.38;98402.69;1693787;83;20089;-67
2022/02/22 09:08:02;;;;;;;;;;;;;;;12.26;40.78;98402.64;1713213;82;21129;-69
2022/02/22 09:10:36;;;;;;;;;;;;;;;12.22;41.11;98398.42;1720122;82;20120;-68
2022/02/22 09:13:06;;;;;;;;;;;;;;;12.32;40.49;98408.69;1731719;81;20161;-65
2022/02/22 09:15:33;;;;;;;;;;;;;;;12.47;39.45;98404.56;1722076;83;20988;-68
2022/02/22 09:18:10;;;;;;;;;;;;;;;12.58;38.10;98407.58;1687314;82;20421;-67
2022/02/22 09:20:39;;;;;;;;;;;;;;;12.75;37.85;98400.87;1731611;82;21165;-67
2022/02/22 09:23:07;;;;;;;;;;;;;;;12.82;36.06;98392.77;1733355;82;20166;-67
2022/02/22 09:25:36;;;;;;;;;;;;;;;12.65;36.53;98402.23;1733690;82;20489;-67
2022/02/22 09:28:09;;;;;;;;;;;;;;;12.59;36.26;98400.91;1732668;82;20114;-70
2022/02/22 09:30:38;;;;;;;;;;;;;;;12.70;36.16;98397.84;1720872;83;20442;-70
2022/02/22 09:33:14;;;;;;;;;;;;;;;12.91;35.35;98390.63;1729418;83;21366;-69
2022/02/22 09:35:46;;;;;;;;;;;;;;;13.02;34.46;98408.78;1713165;82;20152;-68
2022/02/22 09:38:08;;;;;;;;;;;;;;;13.10;35.61;98404.44;1721823;82;20136;-68
2022/02/22 09:40:46;;;;;;;;;;;;;;;13.19;34.39;98399.56;1732728;81;20094;-67
2022/02/22 09:43:17;;;;;;;;;;;;;;;13.18;35.11;98398.55;1727918;82;20131;-67
2022/02/22 09:45:44;;;;;;;;;;;;;;;13.24;35.28;98390.79;1728486;82;20688;-67
2022/02/22 09:48:27;;;;;;;;;;;;;;;13.35;35.48;98399.47;1727545;83;20083;-67
2022/02/22 09:50:46;;;;;;;;;;;;;;;13.46;35.85;98403.26;1723899;82;20091;-67
2022/02/22 09:53:16;;;;;;;;;;;;;;;13.68;34.92;98410.01;1727438;83;20126;-67
2022/02/22 09:55:48;;;;;;;;;;;;;;;13.68;35.03;98399.56;1728368;83;20095;-67
2022/02/22 09:58:20;;;;;;;;;;;;;;;13.51;35.42;98398.03;1717154;83;20083;-67
2022/02/22 10:01:00;;;;;;;;;;;;;;;13.46;34.11;98396.95;1727727;82;20083;-67
2022/02/22 10:03:29;;;;;;;;;;;;;;;13.41;33.89;98404.92;1728078;82;20114;-67
2022/02/22 10:05:59;;;;;;;;;;;;;;;13.25;34.34;98396.52;1738975;81;20114;-67
2022/02/22 10:08:31;;;;;;;;;;;;;;;13.17;33.93;98389.48;1759992;81;20082;-67
2022/02/22 10:11:09;;;;;;;;;;;;;;;13.25;34.49;98386.88;1760016;81;21286;-67
2022/02/22 10:13:36;;;;;;;;;;;;;;;13.24;34.04;98390.21;1760544;81;20087;-67
2022/02/22 10:16:12;;;;;;;;;;;;;;;13.14;34.63;98379.14;1736358;81;20117;-67
2022/02/22 10:18:50;;;;;;;;;;;;;;;13.25;34.73;98391.01;1760358;81;20124;-66
2022/02/22 10:21:21;;;;;;;;;;;;;;;13.44;33.24;98381.34;1731701;81;20094;-67
2022/02/22 10:23:52;;;;;;;;;;;;;;;13.42;34.15;98380.91;1736408;81;20083;-66
2022/02/22 10:26:27;;;;;;;;;;;;;;;13.46;33.64;98383.95;1760719;81;20114;-67
2022/02/22 10:28:56;;;;;;;;;;;;;;;13.55;33.47;98383.16;1730557;81;20133;-67
2022/02/22 10:31:35;;;;;;;;;;;;;;;13.61;33.86;98372.64;1760699;81;20113;-66
2022/02/22 10:34:04;;;;;;;;;;;;;;;13.66;33.52;98397.75;1737033;81;20138;-65
2022/02/22 10:36:43;;;;;;;;;;;;;;;13.66;32.87;98389.47;1736304;81;20114;-66
2022/02/22 10:39:12;;;;;;;;;;;;;;;13.63;33.11;98381.34;1758175;81;20414;-66
2022/02/22 10:41:43;;;;;;;;;;;;;;;13.66;33.79;98383.95;1753644;80;20121;-67
2022/02/22 10:44:14;;;;;;;;;;;;;;;13.77;32.31;98377.48;1731982;82;20085;-67
2022/02/22 10:46:47;;;;;;;;;;;;;;;13.72;32.04;98380.55;1731555;83;20084;-67
2022/02/22 10:49:23;;;;;;;;;;;;;;;13.50;32.07;98377.94;1732427;81;21143;-67
2022/02/22 10:51:49;;;;;;;;;;;;;;;13.46;33.54;98379.83;1717864;83;20113;-67
2022/02/22 10:54:21;;;;;;;;;;;;;;;13.76;33.44;98380.03;1697860;83;20277;-67
2022/02/22 10:56:49;;;;;;;;;;;;;;;14.09;31.91;98388.30;1697418;84;20086;-67
2022/02/22 10:59:22;;;;;;;;;;;;;;;14.14;31.99;98375.58;1665626;86;20181;-67
2022/02/22 11:01:50;;;;;;;;;;;;;;;14.26;32.76;98388.40;1669063;86;20774;-67
2022/02/22 11:04:19;;;;;;;;;;;;;;;14.39;32.52;98386.47;1675211;84;20417;-67
2022/02/22 11:06:51;;;;;;;;;;;;;;;14.60;32.25;98381.09;1671729;86;20089;-67
2022/02/22 11:09:26;;;;;;;;;;;;;;;14.69;31.10;98388.53;1673040;86;20126;-67
2022/02/22 11:12:00;;;;;;;;;;;;;;;14.44;31.71;98393.06;1673913;85;20166;-67
2022/02/22 11:14:32;;;;;;;;;;;;;;;14.16;31.69;98387.05;1642135;86;20157;-66
2022/02/22 11:17:18;;;;;;;;;;;;;;;13.77;32.40;98367.84;1673439;85;20089;-67
2022/02/22 11:19:50;;;;;;;;;;;;;;;13.61;32.83;98393.90;1674314;85;20161;-67
2022/02/22 11:22:23;;;;;;;;;;;;;;;13.66;32.93;98407.40;1674726;85;20129;-67
2022/02/22 11:24:57;;;;;;;;;;;;;;;13.42;33.17;98403.77;1674605;85;20134;-67
2022/02/22 11:27:33;;;;;;;;;;;;;;;13.07;33.48;98394.72;1673971;85;20128;-67
2022/02/22 11:30:07;;;;;;;;;;;;;;;12.84;34.13;98404.23;1669425;86;20089;-67
2022/02/22 11:32:37;;;;;;;;;;;;;;;12.71;35.36;98401.39;1673035;86;20101;-67
2022/02/22 11:35:17;;;;;;;;;;;;;;;12.73;35.18;98405.94;1673203;85;20164;-68
2022/02/22 11:37:46;;;;;;;;;;;;;;;12.60;34.82;98397.58;1666270;84;20125;-66
2022/02/22 11:40:26;;;;;;;;;;;;;;;12.59;35.50;98397.36;1683574;84;21035;-67
2022/02/22 11:43:18;;;;;;;;;;;;;;;12.92;35.41;98393.60;1726311;83;20147;-68
2022/02/22 11:45:50;;;;;;;;;;;;;;;13.20;34.60;98386.00;1725724;83;20123;-68
2022/02/22 11:48:25;;;;;;;;;;;;;;;13.29;34.94;98389.09;1726504;83;20144;-67
2022/02/22 11:50:54;;;;;;;;;;;;;;;13.38;35.16;98392.45;1726245;83;20148;-68
2022/02/22 11:53:27;;;;;;;;;;;;;;;13.53;34.52;98395.13;1676599;84;20472;-67
2022/02/22 11:55:57;;;;;;;;;;;;;;;13.72;34.81;98385.26;1673382;84;20121;-66
2022/02/22 11:58:30;;;;;;;;;;;;;;;13.94;34.45;98395.52;1673648;84;20117;-66
2022/02/22 12:01:04;;;;;;;;;;;;;;;14.15;34.49;98396.48;1695796;84;20120;-66
2022/02/22 12:03:27;;;;;;;;;;;;;;;14.14;34.46;98392.93;1693252;84;20114;-67
2022/02/22 12:06:06;;;;;;;;;;;;;;;14.20;34.58;98390.09;1688005;84;20081;-66
2022/02/22 12:08:50;;;;;;;;;;;;;;;14.18;34.43;98393.80;1644812;86;20161;-67
2022/02/22 12:11:18;;;;;;;;;;;;;;;14.24;34.63;98381.07;1670449;84;20122;-67
2022/02/22 12:14:02;;;;;;;;;;;;;;;14.54;35.03;98377.84;1688081;84;20130;-67
2022/02/22 12:16:26;;;;;;;;;;;;;;;15.03;34.59;98376.39;1680939;84;20161;-67
2022/02/22 12:19:07;;;;;;;;;;;;;;;15.45;33.62;98368.46;1683061;84;21113;-67
2022/02/22 12:21:42;;;;;;;;;;;;;;;15.66;31.52;98377.61;1674567;84;20091;-67
2022/02/22 12:24:13;;;;;;;;;;;;;;;15.53;32.43;98385.36;1673788;84;20244;-67
2022/02/22 12:26:42;;;;;;;;;;;;;;;15.55;32.37;98394.66;1674596;84;20444;-67
2022/02/22 12:29:14;;;;;;;;;;;;;;;15.68;31.64;98387.70;1646761;85;20133;-67
2022/02/22 12:31:43;;;;;;;;;;;;;;;15.72;32.08;98389.34;1646739;85;20118;-68
2022/02/22 12:34:16;;;;;;;;;;;;;;;15.85;31.60;98389.88;1657712;85;20104;-66
2022/02/22 12:36:58;;;;;;;;;;;;;;;16.00;32.24;98388.07;1662703;85;20176;-66
2022/02/22 12:39:23;;;;;;;;;;;;;;;16.34;30.71;98376.31;1677067;84;20435;-66
2022/02/22 12:41:54;;;;;;;;;;;;;;;16.53;31.06;98379.45;1644284;84;20159;-66
2022/02/22 12:44:27;;;;;;;;;;;;;;;16.67;29.88;98385.13;1688918;85;21142;-66
2022/02/22 12:46:54;;;;;;;;;;;;;;;16.59;29.59;98382.07;1689195;85;20083;-68
2022/02/22 12:49:35;;;;;;;;;;;;;;;16.49;29.20;98389.91;1689525;83;20166;-66
2022/02/22 12:52:00;;;;;;;;;;;;;;;16.15;29.99;98391.20;1687088;83;20124;-66
2022/02/22 12:54:35;;;;;;;;;;;;;;;15.79;29.94;98394.96;1684618;85;20139;-66
2022/02/22 12:57:06;;;;;;;;;;;;;;;15.45;30.75;98390.00;1689403;83;21146;-66
2022/02/22 12:59:34;;;;;;;;;;;;;;;15.39;31.10;98397.62;1688942;83;20443;-66
2022/02/22 13:02:06;;;;;;;;;;;;;;;15.56;31.41;98388.75;1688973;85;20119;-67
2022/02/22 13:04:39;;;;;;;;;;;;;;;15.75;30.43;98395.50;1688178;85;20183;-67
2022/02/22 13:07:13;;;;;;;;;;;;;;;15.66;30.68;98395.00;1689946;85;20447;-67